Latest Weather Observations for Parafield

IDS60901

Issued at 10:41 am CST Friday 14 May 2021 (issued every 10 minutes, with the page automatically refreshed every 10 minutes)

About weather observations | Map of Adelaide area stations | Latest observations for Adelaide area | Other Formats
Station Details ID: 023013 Name: PARAFIELD AIRPORT Lat: -34.80 Lon: 138.63 Height: 9.5 m
Data from the previous 72 hours. | See also: Recent months at Parafield
Date/Time
CST
Temp
°C
App
Temp
°C
Dew
Point
°C
Rel
Hum
%
Delta-T
°C
Wind Press
QNH
hPa
Press
MSL
hPa
Rain since
9am
mm
Dir  Spd
km/h
Gust
km/h
Spd
kts
Gust
kts
14/10:30am 14.9 10.6 9.5 70 2.8 SW 22 30 12 16 1022.0 1021.9 0.2
14/10:00am 16.1 10.9 7.3 56 4.4 SW 24 35 13 19 1021.7 1021.6 0.0
14/09:30am 15.4 10.7 7.7 60 3.8 SW 22 35 12 19 1021.9 1021.8 0.0
14/09:00am 14.8 11.5 9.4 70 2.8 SW 17 24 9 13 1021.9 1021.8 0.8
14/08:30am 13.8 9.9 9.5 75 2.2 SW 20 26 11 14 1021.7 1021.6 0.8
14/08:00am 13.9 10.5 9.3 74 2.3 SSW 17 24 9 13 1021.0 1021.0 0.8
14/07:30am 13.7 9.5 9.7 77 2.0 SSW 22 30 12 16 1020.5 1020.5 0.8
14/07:00am 13.9 10.1 9.7 76 2.2 SW 20 30 11 16 1020.2 1020.2 0.8
14/06:30am 13.6 11.2 10.0 79 1.9 SW 13 30 7 16 1019.8 1019.8 0.8
14/06:00am 12.9 11.6 11.3 90 0.8 SW 9 13 5 7 1019.5 1019.5 0.8
14/05:30am 12.9 9.8 11.6 92 0.7 WSW 19 24 10 13 1019.2 1019.2 0.8
14/05:10am 12.8 10.0 11.5 92 0.7 W 17 22 9 12 1019.2 1019.2 0.8
14/05:00am 12.8 9.4 11.2 90 0.8 WSW 20 30 11 16 1019.1 1019.1 0.8
14/04:55am 12.9 9.1 11.1 89 0.9 WSW 22 30 12 16 1019.1 1019.1 0.8
14/04:30am 13.3 8.1 10.1 81 1.6 WSW 28 43 15 23 1019.1 1019.1 0.8
14/04:00am 13.9 9.1 8.9 72 2.5 WSW 24 33 13 18 1019.1 1019.1 0.8
14/03:30am 14.1 8.7 7.9 66 3.1 WSW 26 33 14 18 1019.1 1019.1 0.8
14/03:00am 13.9 9.7 8.1 68 2.9 W 20 28 11 15 1019.3 1019.3 0.8
14/02:30am 13.6 9.7 8.7 72 2.5 W 19 26 10 14 1019.5 1019.5 0.8
14/02:00am 13.1 9.6 8.8 75 2.2 W 17 24 9 13 1019.7 1019.7 0.8
14/01:30am 9.6 8.9 7.0 84 1.2 CALM 0 6 0 3 1019.8 1019.8 0.8
14/01:00am 9.7 8.4 6.2 79 1.6 SW 2 7 1 4 1019.9 1019.9 0.8
14/12:30am 11.2 8.6 6.1 71 2.4 WSW 9 15 5 8 1020.1 1020.1 0.8
14/12:00am 12.1 8.8 6.6 69 2.6 SW 13 15 7 8 1020.2 1020.2 0.8
 
Date/Time
CST
Temp
°C
App
Temp
°C
Dew
Point
°C
Rel
Hum
%
Delta-T
°C
Wind Press
QNH
hPa
Press
MSL
hPa
Rain since
9am
mm
Dir  Spd
km/h
Gust
km/h
Spd
kts
Gust
kts
13/11:30pm 12.7 9.8 8.2 74 2.2 SW 13 17 7 9 1020.2 1020.2 0.8
13/11:00pm 12.4 9.3 7.1 70 2.6 SW 13 19 7 10 1020.3 1020.3 0.8
13/10:30pm 11.8 8.9 6.5 70 2.5 SW 11 15 6 8 1020.5 1020.5 0.8
13/10:00pm 11.9 8.4 5.5 65 3.0 SW 13 17 7 9 1020.7 1020.7 0.8
13/09:30pm 12.8 9.1 6.2 64 3.1 SW 15 20 8 11 1020.6 1020.6 0.8
13/09:00pm 12.8 9.3 7.0 68 2.8 SW 15 19 8 10 1020.5 1020.5 0.8
13/08:30pm 13.2 8.7 7.0 66 3.0 SW 20 28 11 15 1020.4 1020.4 0.8
13/08:00pm 12.9 9.3 8.2 73 2.3 SW 17 24 9 13 1020.2 1020.2 0.8
13/07:30pm 13.1 9.8 8.2 72 2.4 WSW 15 22 8 12 1020.0 1020.0 0.8
13/07:00pm 13.3 9.7 9.9 80 1.7 WSW 19 22 10 12 1019.9 1019.9 0.6
13/06:30pm 13.2 10.8 8.5 73 2.3 SW 11 15 6 8 1019.6 1019.6 0.6
13/06:00pm 12.5 10.3 9.5 82 1.5 SW 11 15 6 8 1019.4 1019.4 0.6
13/05:30pm 12.5 7.9 9.5 82 1.5 WSW 24 35 13 19 1019.1 1019.1 0.6
13/05:00pm 14.5 10.3 8.2 66 3.2 SW 20 30 11 16 1018.9 1018.9 0.4
13/04:30pm 15.1 10.4 7.6 61 3.7 SW 22 30 12 16 1018.6 1018.6 0.4
13/04:00pm 15.5 10.5 8.0 61 3.8 SW 24 33 13 18 1018.2 1018.2 0.4
13/03:30pm 15.7 10.8 8.4 62 3.7 SSW 24 35 13 19 1017.9 1017.9 0.4
13/03:00pm 16.3 10.4 9.0 62 3.7 SW 30 41 16 22 1017.7 1017.7 0.4
13/02:30pm 15.7 9.9 8.0 60 3.9 SW 28 35 15 19 1017.6 1017.6 0.4
13/02:00pm 15.3 11.0 10.7 74 2.4 SSW 24 33 13 18 1017.5 1017.5 0.4
13/01:30pm 16.3 9.9 8.5 60 4.0 SSW 32 39 17 21 1017.2 1017.2 0.4
13/01:00pm 16.0 12.1 10.7 71 2.8 SSW 22 32 12 17 1017.4 1017.4 0.4
13/12:30pm - - - - - SSW 24 37 13 20 1017.5 1017.5 0.4
13/12:26pm - - - - - SSW 22 30 12 16 1017.5 1017.5 0.4
13/12:00pm - - - - - SSW 17 22 9 12 1017.7 1017.7 0.4
13/11:50am - - - - - SSW 19 28 10 15 1017.7 1017.7 0.4
13/11:47am - - - - - SSW 17 28 9 15 1017.8 1017.8 0.4
13/11:30am - - - - - SSW 17 22 9 12 1017.8 1017.8 0.4
13/11:19am - - - - - SSW 13 24 7 13 1017.9 1017.9 0.4
13/11:00am - - - - - SSE 11 15 6 8 1017.5 1017.5 0.4
13/10:53am 13.3 11.1 13.3 100 0.0 S 17 28 9 15 1017.7 1017.7 0.4
13/10:52am 13.3 11.1 13.3 100 0.0 S 17 28 9 15 1017.7 1017.7 0.4
13/10:30am 13.6 11.6 12.8 95 0.4 NW 15 20 8 11 1017.4 1017.4 0.2
13/10:17am 13.3 11.7 10.1 81 1.7 NNW 9 15 5 8 1017.3 1017.3 0.0
13/10:15am 13.3 11.3 10.1 81 1.7 NNW 11 17 6 9 1017.3 1017.3 0.0
13/10:00am 13.2 11.2 10.0 81 1.6 NNW 11 19 6 10 1017.3 1017.3 0.0
13/09:57am 13.2 11.1 9.8 80 1.7 NNW 11 19 6 10 1017.3 1017.3 0.0
13/09:35am 13.3 10.8 8.4 72 2.4 N 11 15 6 8 1017.3 1017.3 0.0
13/09:30am 13.3 10.8 8.4 72 2.4 N 11 15 6 8 1017.2 1017.2 0.0
13/09:00am 12.5 9.5 7.8 73 2.3 N 13 19 7 10 1017.2 1017.2 0.0
13/08:30am 12.0 8.6 7.5 74 2.2 N 15 19 8 10 1017.3 1017.3 0.0
13/08:00am 11.6 8.5 7.3 75 2.1 N 13 20 7 11 1017.2 1017.2 0.0
13/07:30am 11.2 8.4 7.1 76 2.0 NNE 11 15 6 8 1017.0 1017.0 0.0
13/07:00am 10.3 7.0 6.5 77 1.8 NNE 13 17 7 9 1016.5 1016.5 0.0
13/06:30am 10.1 7.1 6.1 76 1.8 NNE 11 15 6 8 1016.6 1016.6 0.0
13/06:00am 10.4 7.8 6.2 75 1.9 N 9 15 5 8 1016.7 1016.7 0.0
13/05:30am 10.2 6.6 5.2 71 2.3 N 13 19 7 10 1016.7 1016.7 0.0
13/05:00am 10.0 6.1 5.4 73 2.1 N 15 19 8 10 1016.6 1016.6 0.0
13/04:30am 9.5 6.6 4.9 73 2.1 NNE 9 15 5 8 1016.9 1016.9 0.0
13/04:00am 9.3 6.1 5.1 75 1.9 N 11 13 6 7 1016.8 1016.8 0.0
13/03:30am 7.9 5.3 7.6 98 0.1 NNE 11 15 6 8 1016.9 1016.9 0.0
13/03:00am 5.7 4.7 5.7 100 0.0 CALM 0 0 0 0 1017.7 1017.7 0.0
13/02:30am 5.4 4.3 5.3 99 0.0 CALM 0 0 0 0 1017.6 1017.6 0.0
13/02:00am 5.3 2.8 4.0 91 0.5 ENE 6 7 3 4 1017.8 1017.8 0.0
13/01:30am 5.6 3.9 4.1 90 0.6 NE 2 6 1 3 1018.1 1018.1 0.0
13/01:00am 7.1 4.4 5.4 89 0.8 NE 9 9 5 5 1017.9 1017.9 0.0
13/12:30am 6.5 4.2 4.8 89 0.7 NE 6 9 3 5 1018.3 1018.3 0.0
13/12:00am 6.0 4.8 4.5 90 0.6 CALM 0 0 0 0 1018.6 1018.6 0.0
 
Date/Time
CST
Temp
°C
App
Temp
°C
Dew
Point
°C
Rel
Hum
%
Delta-T
°C
Wind Press
QNH
hPa
Press
MSL
hPa
Rain since
9am
mm
Dir  Spd
km/h
Gust
km/h
Spd
kts
Gust
kts
12/11:30pm 5.7 2.9 3.2 84 1.0 NNE 7 11 4 6 1018.5 1018.5 0.0
12/11:00pm 8.0 5.2 5.3 83 1.2 N 9 11 5 6 1018.8 1018.8 0.0
12/10:30pm 7.4 4.5 4.9 84 1.1 NNE 9 11 5 6 1019.1 1019.1 0.0
12/10:00pm 7.5 4.1 5.8 89 0.8 NNE 13 15 7 8 1019.4 1019.4 0.0
12/09:30pm 7.6 5.1 4.7 82 1.3 NNE 7 9 4 5 1019.7 1019.7 0.0
12/09:00pm 7.7 5.7 6.3 91 0.6 N 6 7 3 4 1019.9 1019.9 0.0
12/08:30pm 8.3 7.4 6.1 86 1.0 CALM 0 0 0 0 1019.8 1019.8 0.0
12/08:00pm 8.3 6.5 5.4 82 1.3 NE 4 6 2 3 1020.1 1020.1 0.0
12/07:30pm 9.1 7.1 6.2 82 1.3 E 6 7 3 4 1020.3 1020.3 0.0
12/07:00pm 10.6 8.7 6.7 77 1.8 E 6 6 3 3 1020.3 1020.3 0.0
12/06:30pm 10.9 8.6 5.9 71 2.3 E 7 9 4 5 1020.1 1020.1 0.0
12/06:00pm 12.4 9.7 5.8 64 3.1 E 9 9 5 5 1020.0 1020.0 0.0
12/05:30pm 12.9 11.9 5.8 62 3.3 CALM 0 0 0 0 1020.2 1020.2 0.0
12/05:00pm 14.9 13.9 5.7 54 4.4 CALM 0 6 0 3 1020.3 1020.3 0.0
12/04:30pm 15.0 12.1 6.3 56 4.2 WSW 11 15 6 8 1020.5 1020.5 0.0
12/04:00pm 15.0 10.6 6.6 57 4.1 WSW 19 24 10 13 1020.4 1020.4 0.0
12/03:30pm 15.5 11.5 6.8 56 4.2 W 17 22 9 12 1020.3 1020.3 0.0
12/03:00pm 15.7 10.8 6.7 55 4.4 W 22 28 12 15 1020.4 1020.4 0.0
12/02:30pm 16.9 13.7 4.9 45 5.7 NNW 11 19 6 10 1020.2 1020.2 0.0
12/02:00pm 17.2 14.5 5.5 46 5.6 N 9 19 5 10 1020.4 1020.4 0.0
12/01:30pm 17.0 13.5 5.6 47 5.5 NNW 13 17 7 9 1021.0 1021.0 0.0
12/01:00pm 16.6 13.6 5.9 49 5.2 N 11 17 6 9 1021.7 1021.6 0.0
12/12:30pm 16.2 12.7 5.5 49 5.1 NNW 13 17 7 9 1022.3 1022.2 0.0
12/12:00pm 15.6 12.5 5.5 51 4.8 NW 11 19 6 10 1022.8 1022.7 0.0
12/11:30am 15.2 12.5 5.7 53 4.5 WNW 9 17 5 9 1023.4 1023.3 0.0
12/11:00am 14.8 12.5 5.9 55 4.3 NNW 7 13 4 7 1023.9 1023.8 0.0
12/10:30am 13.9 12.9 5.5 57 3.9 CALM 0 6 0 3 1024.3 1024.2 0.0
12/10:00am 12.7 11.7 5.6 62 3.3 CALM 0 7 0 4 1024.8 1024.7 0.0
12/09:30am 10.9 10.1 6.5 74 2.1 CALM 0 0 0 0 1025.2 1025.1 0.0
12/09:00am 9.5 8.9 7.3 86 1.0 CALM 0 0 0 0 1025.4 1025.3 0.0
12/08:30am 8.3 7.7 7.4 94 0.4 CALM 0 0 0 0 1025.5 1025.4 0.0
12/08:00am 6.8 5.6 6.5 98 0.1 NE 2 6 1 3 1025.1 1025.0 0.0
12/07:30am 5.4 4.3 5.3 99 0.0 CALM 0 0 0 0 1024.9 1024.8 0.0
12/07:00am 5.7 4.7 5.7 100 0.0 CALM 0 0 0 0 1024.9 1024.8 0.0
12/06:30am 5.5 4.5 5.5 100 0.0 CALM 0 0 0 0 1024.8 1024.7 0.0
12/06:00am 4.5 3.3 4.5 100 0.0 CALM 0 0 0 0 1024.6 1024.5 0.0
12/05:30am 4.1 2.5 2.3 88 0.7 CALM 0 0 0 0 1024.3 1024.2 0.0
12/05:00am 4.7 2.7 2.4 85 0.9 NE 2 7 1 4 1024.2 1024.1 0.0
12/04:30am 5.3 2.3 4.0 91 0.5 NE 9 11 5 6 1024.2 1024.1 0.0
12/04:00am 4.6 1.7 2.8 88 0.7 NE 7 7 4 4 1024.4 1024.3 0.0
12/03:30am 5.4 3.9 2.9 84 1.0 CALM 0 0 0 0 1024.6 1024.5 0.0
12/03:00am 5.5 4.1 3.3 86 0.9 CALM 0 0 0 0 1024.9 1024.8 0.0
12/02:30am 5.8 4.3 3.1 83 1.1 CALM 0 0 0 0 1025.0 1024.9 0.0
12/02:00am 5.5 2.2 2.5 81 1.2 ENE 9 11 5 6 1025.2 1025.1 0.0
12/01:30am 6.7 5.3 3.3 79 1.4 CALM 0 0 0 0 1025.5 1025.4 0.0
12/01:00am 7.1 5.6 3.0 75 1.7 CALM 0 0 0 0 1025.7 1025.6 0.0
12/12:30am 8.9 6.3 3.3 68 2.4 SSE 6 7 3 4 1026.0 1025.9 0.0
12/12:00am 10.4 7.9 3.9 64 2.8 E 6 9 3 5 1026.2 1026.1 0.0
 
Date/Time
CST
Temp
°C
App
Temp
°C
Dew
Point
°C
Rel
Hum
%
Delta-T
°C
Wind Press
QNH
hPa
Press
MSL
hPa
Rain since
9am
mm
Dir  Spd
km/h
Gust
km/h
Spd
kts
Gust
kts
11/11:30pm 11.0 8.3 3.8 61 3.2 ESE 7 9 4 5 1026.4 1026.3 0.0
11/11:00pm 12.0 8.6 4.0 58 3.6 SE 11 17 6 9 1026.5 1026.4 0.0
11/10:30pm 12.1 8.3 3.9 57 3.6 SSE 13 20 7 11 1026.5 1026.4 0.0
11/10:00pm 12.7 8.2 4.2 56 3.9 SE 17 28 9 15 1026.6 1026.5 0.0
11/09:30pm 12.9 8.8 4.6 57 3.8 SE 15 24 8 13 1026.5 1026.4 0.0
11/09:00pm 12.9 9.9 5.8 62 3.3 SSE 11 17 6 9 1026.5 1026.4 0.0
11/08:30pm 13.0 9.9 5.4 60 3.5 SSE 11 20 6 11 1026.4 1026.3 0.0
11/08:00pm 13.2 8.9 5.4 59 3.6 SE 17 26 9 14 1026.3 1026.2 0.0
11/07:30pm 13.0 9.1 5.4 60 3.5 SSE 15 24 8 13 1026.0 1025.9 0.0
11/07:00pm 12.1 9.3 6.8 70 2.5 SSE 11 17 6 9 1025.8 1025.7 0.0
11/06:30pm 10.8 7.6 5.1 68 2.6 SSE 11 15 6 8 1025.5 1025.4 0.0
11/06:00pm 11.8 8.8 6.1 68 2.7 SSE 11 17 6 9 1025.1 1025.0 0.0
11/05:30pm 12.4 9.3 5.6 63 3.2 SE 11 15 6 8 1024.9 1024.8 0.0
11/05:00pm 13.3 9.6 6.2 62 3.4 SSE 15 22 8 12 1024.8 1024.7 0.0
11/04:30pm 14.2 10.2 6.6 60 3.7 SSE 17 24 9 13 1024.8 1024.7 0.0
11/04:00pm 14.0 9.6 6.4 60 3.6 SE 19 24 10 13 1024.7 1024.6 0.0
11/03:30pm 14.1 8.0 6.7 61 3.6 SE 28 33 15 18 1024.6 1024.5 0.0
11/03:00pm 15.7 11.6 6.4 54 4.5 SE 17 28 9 15 1024.3 1024.2 0.0
11/02:30pm 15.3 11.4 7.1 58 4.0 SE 17 22 9 12 1024.3 1024.2 0.0
11/02:00pm 15.6 12.0 6.9 56 4.3 SSE 15 30 8 16 1024.1 1024.0 0.0
11/01:30pm 16.1 12.7 7.6 57 4.2 SE 15 22 8 12 1024.3 1024.2 0.0
11/01:00pm 15.4 11.5 7.2 58 4.0 SE 17 24 9 13 1024.6 1024.5 0.0
11/12:30pm 16.0 11.4 6.4 53 4.7 SE 20 28 11 15 1024.9 1024.8 0.0
11/12:00pm 15.4 11.4 6.7 56 4.2 SE 17 28 9 15 1025.1 1025.0 0.0
11/11:30am 15.7 11.7 6.7 55 4.4 ESE 17 24 9 13 1025.3 1025.2 0.0
11/11:00am 15.8 11.4 7.6 58 4.1 SE 20 28 11 15 1025.4 1025.3 0.0

Latest Capital City Observations: Canberra | Sydney | Melbourne | Brisbane | Adelaide | Perth | Hobart | Darwin

Other formats

Comma delimited format used in spreadsheet applications
http://www.bom.gov.au/fwo/IDS60901/IDS60901.95677.axf

JavaScript Object Notation format (JSON) in row-major order
http://www.bom.gov.au/fwo/IDS60901/IDS60901.95677.json

Data quality

Most of these data are generated automatically and are frequently updated. Quality checks on data are not normally performed. It is possible for incorrect values to appear. Refer to information at About Latest Weather Observations and please check the disclaimer before using these data.